sensor_id;sensor_type;location;lat;lon;timestamp;P1;durP1;ratioP1;P2;durP2;ratioP2
14907;SDS011;7545;52.092;7.006;2022-10-31T00:00:45;12.13;;;6.85;;
14907;SDS011;7545;52.092;7.006;2022-10-31T00:03:11;13.35;;;6.30;;
14907;SDS011;7545;52.092;7.006;2022-10-31T00:05:40;10.40;;;6.38;;
14907;SDS011;7545;52.092;7.006;2022-10-31T00:08:06;11.70;;;7.05;;
14907;SDS011;7545;52.092;7.006;2022-10-31T00:10:32;8.63;;;6.13;;
14907;SDS011;7545;52.092;7.006;2022-10-31T00:12:57;12.65;;;6.53;;
14907;SDS011;7545;52.092;7.006;2022-10-31T00:15:23;8.90;;;5.78;;
14907;SDS011;7545;52.092;7.006;2022-10-31T00:17:48;10.45;;;6.15;;
14907;SDS011;7545;52.092;7.006;2022-10-31T00:20:14;11.85;;;6.50;;
14907;SDS011;7545;52.092;7.006;2022-10-31T00:22:40;15.95;;;6.78;;
14907;SDS011;7545;52.092;7.006;2022-10-31T00:25:05;12.52;;;6.78;;
14907;SDS011;7545;52.092;7.006;2022-10-31T00:27:31;10.27;;;7.10;;
14907;SDS011;7545;52.092;7.006;2022-10-31T00:29:56;8.45;;;6.35;;
14907;SDS011;7545;52.092;7.006;2022-10-31T00:32:22;9.18;;;5.93;;
14907;SDS011;7545;52.092;7.006;2022-10-31T00:34:48;8.75;;;6.30;;
14907;SDS011;7545;52.092;7.006;2022-10-31T00:37:13;9.38;;;6.63;;
14907;SDS011;7545;52.092;7.006;2022-10-31T00:39:39;14.13;;;6.65;;
14907;SDS011;7545;52.092;7.006;2022-10-31T00:42:04;11.02;;;6.32;;
14907;SDS011;7545;52.092;7.006;2022-10-31T00:44:30;10.93;;;6.88;;
14907;SDS011;7545;52.092;7.006;2022-10-31T00:46:55;8.50;;;6.53;;
14907;SDS011;7545;52.092;7.006;2022-10-31T00:49:21;9.77;;;5.88;;
14907;SDS011;7545;52.092;7.006;2022-10-31T00:51:47;9.48;;;6.35;;
14907;SDS011;7545;52.092;7.006;2022-10-31T00:54:12;14.32;;;6.82;;
14907;SDS011;7545;52.092;7.006;2022-10-31T00:56:38;14.93;;;6.57;;
14907;SDS011;7545;52.092;7.006;2022-10-31T00:59:03;10.35;;;7.03;;
14907;SDS011;7545;52.092;7.006;2022-10-31T01:01:29;11.18;;;6.78;;
14907;SDS011;7545;52.092;7.006;2022-10-31T01:03:54;12.32;;;6.78;;
14907;SDS011;7545;52.092;7.006;2022-10-31T01:06:20;14.15;;;7.45;;
14907;SDS011;7545;52.092;7.006;2022-10-31T01:08:46;13.15;;;7.32;;
14907;SDS011;7545;52.092;7.006;2022-10-31T01:11:14;10.10;;;8.32;;
14907;SDS011;7545;52.092;7.006;2022-10-31T01:13:41;12.48;;;7.38;;
14907;SDS011;7545;52.092;7.006;2022-10-31T01:16:09;8.07;;;5.90;;
14907;SDS011;7545;52.092;7.006;2022-10-31T01:18:36;12.57;;;6.72;;
14907;SDS011;7545;52.092;7.006;2022-10-31T01:23:32;10.45;;;6.80;;
14907;SDS011;7545;52.092;7.006;2022-10-31T01:26:20;8.93;;;7.28;;
14907;SDS011;7545;52.092;7.006;2022-10-31T01:28:49;10.27;;;6.72;;
14907;SDS011;7545;52.092;7.006;2022-10-31T01:31:17;8.35;;;6.88;;
14907;SDS011;7545;52.092;7.006;2022-10-31T01:33:44;10.38;;;6.97;;
14907;SDS011;7545;52.092;7.006;2022-10-31T01:38:41;10.38;;;7.05;;
14907;SDS011;7545;52.092;7.006;2022-10-31T01:41:07;11.50;;;7.18;;
14907;SDS011;7545;52.092;7.006;2022-10-31T01:43:43;9.18;;;6.20;;
14907;SDS011;7545;52.092;7.006;2022-10-31T01:46:42;10.30;;;6.80;;
14907;SDS011;7545;52.092;7.006;2022-10-31T01:49:13;10.00;;;6.40;;
14907;SDS011;7545;52.092;7.006;2022-10-31T01:51:44;11.00;;;7.22;;
14907;SDS011;7545;52.092;7.006;2022-10-31T01:54:13;14.15;;;7.10;;
14907;SDS011;7545;52.092;7.006;2022-10-31T01:56:42;12.10;;;6.65;;
14907;SDS011;7545;52.092;7.006;2022-10-31T01:59:15;10.15;;;5.97;;
14907;SDS011;7545;52.092;7.006;2022-10-31T02:01:44;10.18;;;7.35;;
14907;SDS011;7545;52.092;7.006;2022-10-31T02:04:11;14.43;;;7.90;;
14907;SDS011;7545;52.092;7.006;2022-10-31T02:09:04;10.10;;;6.25;;
14907;SDS011;7545;52.092;7.006;2022-10-31T02:11:30;10.15;;;7.07;;
14907;SDS011;7545;52.092;7.006;2022-10-31T02:13:58;12.18;;;6.70;;
14907;SDS011;7545;52.092;7.006;2022-10-31T02:16:25;8.98;;;6.60;;
14907;SDS011;7545;52.092;7.006;2022-10-31T02:18:51;8.00;;;6.60;;
14907;SDS011;7545;52.092;7.006;2022-10-31T02:21:18;9.55;;;6.82;;
14907;SDS011;7545;52.092;7.006;2022-10-31T02:26:52;11.23;;;6.95;;
14907;SDS011;7545;52.092;7.006;2022-10-31T02:32:12;9.75;;;6.05;;
14907;SDS011;7545;52.092;7.006;2022-10-31T02:38:25;8.57;;;6.03;;
14907;SDS011;7545;52.092;7.006;2022-10-31T02:46:34;10.52;;;7.53;;
14907;SDS011;7545;52.092;7.006;2022-10-31T02:49:22;11.77;;;7.00;;
14907;SDS011;7545;52.092;7.006;2022-10-31T02:51:52;11.68;;;7.60;;
14907;SDS011;7545;52.092;7.006;2022-10-31T02:54:22;10.90;;;6.70;;
14907;SDS011;7545;52.092;7.006;2022-10-31T02:56:51;9.32;;;6.50;;
14907;SDS011;7545;52.092;7.006;2022-10-31T02:59:23;12.32;;;7.07;;
14907;SDS011;7545;52.092;7.006;2022-10-31T03:02:06;14.07;;;8.57;;
14907;SDS011;7545;52.092;7.006;2022-10-31T03:13:02;10.65;;;7.10;;
14907;SDS011;7545;52.092;7.006;2022-10-31T03:15:43;11.43;;;7.15;;
14907;SDS011;7545;52.092;7.006;2022-10-31T03:18:12;11.20;;;7.47;;
14907;SDS011;7545;52.092;7.006;2022-10-31T03:20:50;11.63;;;7.38;;
14907;SDS011;7545;52.092;7.006;2022-10-31T03:23:26;10.80;;;6.53;;
14907;SDS011;7545;52.092;7.006;2022-10-31T03:25:55;12.48;;;7.18;;
14907;SDS011;7545;52.092;7.006;2022-10-31T03:28:23;10.95;;;7.05;;
14907;SDS011;7545;52.092;7.006;2022-10-31T03:30:53;14.07;;;7.68;;
14907;SDS011;7545;52.092;7.006;2022-10-31T03:33:23;16.20;;;7.72;;
14907;SDS011;7545;52.092;7.006;2022-10-31T03:35:52;11.10;;;7.47;;
14907;SDS011;7545;52.092;7.006;2022-10-31T03:38:20;10.20;;;7.00;;
14907;SDS011;7545;52.092;7.006;2022-10-31T03:40:47;17.55;;;8.32;;
14907;SDS011;7545;52.092;7.006;2022-10-31T03:43:17;14.07;;;7.90;;
14907;SDS011;7545;52.092;7.006;2022-10-31T03:45:53;12.63;;;8.07;;
14907;SDS011;7545;52.092;7.006;2022-10-31T03:48:20;13.65;;;7.47;;
14907;SDS011;7545;52.092;7.006;2022-10-31T03:56:11;12.18;;;8.18;;
14907;SDS011;7545;52.092;7.006;2022-10-31T04:01:31;11.63;;;8.38;;
14907;SDS011;7545;52.092;7.006;2022-10-31T04:04:01;16.27;;;8.13;;
14907;SDS011;7545;52.092;7.006;2022-10-31T04:06:27;12.52;;;8.40;;
14907;SDS011;7545;52.092;7.006;2022-10-31T04:08:56;15.88;;;8.52;;
14907;SDS011;7545;52.092;7.006;2022-10-31T04:11:25;11.30;;;8.77;;
14907;SDS011;7545;52.092;7.006;2022-10-31T04:13:55;12.57;;;8.40;;
14907;SDS011;7545;52.092;7.006;2022-10-31T04:16:23;14.88;;;9.82;;
14907;SDS011;7545;52.092;7.006;2022-10-31T04:18:49;13.13;;;8.15;;
14907;SDS011;7545;52.092;7.006;2022-10-31T04:21:15;11.68;;;8.70;;
14907;SDS011;7545;52.092;7.006;2022-10-31T04:23:41;12.32;;;8.20;;
14907;SDS011;7545;52.092;7.006;2022-10-31T04:26:08;13.50;;;8.15;;
14907;SDS011;7545;52.092;7.006;2022-10-31T04:28:36;10.10;;;7.95;;
14907;SDS011;7545;52.092;7.006;2022-10-31T04:31:02;15.02;;;8.30;;
14907;SDS011;7545;52.092;7.006;2022-10-31T04:33:27;12.82;;;8.35;;
14907;SDS011;7545;52.092;7.006;2022-10-31T04:35:53;14.73;;;8.40;;
14907;SDS011;7545;52.092;7.006;2022-10-31T04:38:19;13.75;;;8.02;;
14907;SDS011;7545;52.092;7.006;2022-10-31T04:40:45;11.60;;;8.35;;
14907;SDS011;7545;52.092;7.006;2022-10-31T04:43:10;10.23;;;7.63;;
14907;SDS011;7545;52.092;7.006;2022-10-31T04:45:36;10.48;;;7.43;;
14907;SDS011;7545;52.092;7.006;2022-10-31T04:48:02;12.35;;;7.90;;
14907;SDS011;7545;52.092;7.006;2022-10-31T04:50:29;13.30;;;8.35;;
14907;SDS011;7545;52.092;7.006;2022-10-31T04:52:54;15.55;;;8.20;;
14907;SDS011;7545;52.092;7.006;2022-10-31T04:55:20;15.18;;;8.68;;
14907;SDS011;7545;52.092;7.006;2022-10-31T04:57:46;13.63;;;7.80;;
14907;SDS011;7545;52.092;7.006;2022-10-31T05:00:14;13.77;;;8.25;;
14907;SDS011;7545;52.092;7.006;2022-10-31T05:02:42;10.07;;;7.82;;
14907;SDS011;7545;52.092;7.006;2022-10-31T05:05:16;11.70;;;8.60;;
14907;SDS011;7545;52.092;7.006;2022-10-31T05:07:44;13.55;;;8.43;;
14907;SDS011;7545;52.092;7.006;2022-10-31T05:10:11;10.38;;;8.00;;
14907;SDS011;7545;52.092;7.006;2022-10-31T05:12:48;11.95;;;7.63;;
14907;SDS011;7545;52.092;7.006;2022-10-31T05:15:19;10.07;;;7.57;;
14907;SDS011;7545;52.092;7.006;2022-10-31T05:17:46;10.88;;;8.13;;
14907;SDS011;7545;52.092;7.006;2022-10-31T05:20:12;11.02;;;7.03;;
14907;SDS011;7545;52.092;7.006;2022-10-31T05:22:49;12.35;;;8.15;;
14907;SDS011;7545;52.092;7.006;2022-10-31T05:25:16;10.05;;;6.97;;
14907;SDS011;7545;52.092;7.006;2022-10-31T05:27:43;14.55;;;7.70;;
14907;SDS011;7545;52.092;7.006;2022-10-31T05:30:11;13.48;;;7.68;;
14907;SDS011;7545;52.092;7.006;2022-10-31T05:32:47;9.55;;;7.80;;
14907;SDS011;7545;52.092;7.006;2022-10-31T05:35:21;8.13;;;6.93;;
14907;SDS011;7545;52.092;7.006;2022-10-31T05:37:52;10.38;;;6.53;;
14907;SDS011;7545;52.092;7.006;2022-10-31T05:40:18;12.15;;;7.65;;
14907;SDS011;7545;52.092;7.006;2022-10-31T05:42:45;9.27;;;6.97;;
14907;SDS011;7545;52.092;7.006;2022-10-31T05:45:12;13.45;;;7.28;;
14907;SDS011;7545;52.092;7.006;2022-10-31T05:47:40;10.25;;;6.68;;
14907;SDS011;7545;52.092;7.006;2022-10-31T05:50:09;10.68;;;6.97;;
14907;SDS011;7545;52.092;7.006;2022-10-31T05:52:35;11.45;;;8.13;;
14907;SDS011;7545;52.092;7.006;2022-10-31T05:55:00;11.25;;;7.10;;
14907;SDS011;7545;52.092;7.006;2022-10-31T05:57:27;13.02;;;7.97;;
14907;SDS011;7545;52.092;7.006;2022-10-31T05:59:53;8.82;;;7.18;;
14907;SDS011;7545;52.092;7.006;2022-10-31T06:02:19;11.90;;;7.05;;
14907;SDS011;7545;52.092;7.006;2022-10-31T06:04:45;10.35;;;7.13;;
14907;SDS011;7545;52.092;7.006;2022-10-31T06:07:11;13.00;;;7.35;;
14907;SDS011;7545;52.092;7.006;2022-10-31T06:09:36;12.95;;;7.72;;
14907;SDS011;7545;52.092;7.006;2022-10-31T06:12:05;12.40;;;7.95;;
14907;SDS011;7545;52.092;7.006;2022-10-31T06:14:31;10.90;;;8.18;;
14907;SDS011;7545;52.092;7.006;2022-10-31T06:16:56;11.30;;;8.80;;
14907;SDS011;7545;52.092;7.006;2022-10-31T06:19:22;11.40;;;7.20;;
14907;SDS011;7545;52.092;7.006;2022-10-31T06:21:48;14.60;;;7.75;;
14907;SDS011;7545;52.092;7.006;2022-10-31T06:24:13;11.27;;;7.80;;
14907;SDS011;7545;52.092;7.006;2022-10-31T06:26:40;13.82;;;8.18;;
14907;SDS011;7545;52.092;7.006;2022-10-31T06:29:06;13.35;;;8.15;;
14907;SDS011;7545;52.092;7.006;2022-10-31T06:31:31;9.93;;;7.57;;
14907;SDS011;7545;52.092;7.006;2022-10-31T06:33:57;11.32;;;7.35;;
14907;SDS011;7545;52.092;7.006;2022-10-31T06:36:23;11.77;;;7.97;;
14907;SDS011;7545;52.092;7.006;2022-10-31T06:38:48;10.85;;;8.10;;
14907;SDS011;7545;52.092;7.006;2022-10-31T06:41:14;10.82;;;8.02;;
14907;SDS011;7545;52.092;7.006;2022-10-31T06:43:40;11.68;;;7.50;;
14907;SDS011;7545;52.092;7.006;2022-10-31T06:46:05;10.98;;;7.45;;
14907;SDS011;7545;52.092;7.006;2022-10-31T06:48:31;12.30;;;8.10;;
14907;SDS011;7545;52.092;7.006;2022-10-31T06:50:57;12.43;;;7.45;;
14907;SDS011;7545;52.092;7.006;2022-10-31T06:53:24;10.15;;;7.93;;
14907;SDS011;7545;52.092;7.006;2022-10-31T06:55:50;10.65;;;7.38;;
14907;SDS011;7545;52.092;7.006;2022-10-31T06:58:16;12.65;;;7.90;;
14907;SDS011;7545;52.092;7.006;2022-10-31T07:00:41;10.10;;;6.65;;
14907;SDS011;7545;52.092;7.006;2022-10-31T07:03:10;9.98;;;6.70;;
14907;SDS011;7545;52.092;7.006;2022-10-31T07:05:37;12.02;;;6.95;;
14907;SDS011;7545;52.092;7.006;2022-10-31T07:08:04;7.75;;;6.72;;
14907;SDS011;7545;52.092;7.006;2022-10-31T07:10:34;12.50;;;7.07;;
14907;SDS011;7545;52.092;7.006;2022-10-31T07:13:02;11.75;;;6.93;;
14907;SDS011;7545;52.092;7.006;2022-10-31T07:15:30;11.05;;;6.40;;
14907;SDS011;7545;52.092;7.006;2022-10-31T07:18:05;9.57;;;7.30;;
14907;SDS011;7545;52.092;7.006;2022-10-31T07:20:33;9.88;;;7.50;;
14907;SDS011;7545;52.092;7.006;2022-10-31T07:22:59;12.05;;;7.95;;
14907;SDS011;7545;52.092;7.006;2022-10-31T07:25:25;9.88;;;7.38;;
14907;SDS011;7545;52.092;7.006;2022-10-31T07:27:52;12.88;;;7.30;;
14907;SDS011;7545;52.092;7.006;2022-10-31T07:30:17;10.73;;;7.32;;
14907;SDS011;7545;52.092;7.006;2022-10-31T07:32:47;9.25;;;7.07;;
14907;SDS011;7545;52.092;7.006;2022-10-31T07:35:15;10.75;;;7.82;;
14907;SDS011;7545;52.092;7.006;2022-10-31T07:37:42;13.07;;;8.00;;
14907;SDS011;7545;52.092;7.006;2022-10-31T07:40:08;14.07;;;7.85;;
14907;SDS011;7545;52.092;7.006;2022-10-31T07:42:35;11.05;;;7.88;;
14907;SDS011;7545;52.092;7.006;2022-10-31T07:45:02;10.23;;;7.22;;
14907;SDS011;7545;52.092;7.006;2022-10-31T07:47:40;11.13;;;8.15;;
14907;SDS011;7545;52.092;7.006;2022-10-31T07:50:07;12.90;;;7.80;;
14907;SDS011;7545;52.092;7.006;2022-10-31T07:52:34;14.18;;;8.20;;
14907;SDS011;7545;52.092;7.006;2022-10-31T07:55:00;13.85;;;8.52;;
14907;SDS011;7545;52.092;7.006;2022-10-31T07:57:26;15.55;;;9.00;;
14907;SDS011;7545;52.092;7.006;2022-10-31T07:59:51;10.10;;;8.15;;
14907;SDS011;7545;52.092;7.006;2022-10-31T08:02:17;11.95;;;7.90;;
14907;SDS011;7545;52.092;7.006;2022-10-31T08:04:43;12.98;;;9.23;;
14907;SDS011;7545;52.092;7.006;2022-10-31T08:07:08;10.70;;;7.88;;
14907;SDS011;7545;52.092;7.006;2022-10-31T08:09:34;9.13;;;7.65;;
14907;SDS011;7545;52.092;7.006;2022-10-31T08:12:00;14.05;;;8.32;;
14907;SDS011;7545;52.092;7.006;2022-10-31T08:14:26;11.60;;;8.40;;
14907;SDS011;7545;52.092;7.006;2022-10-31T08:16:52;11.77;;;8.23;;
14907;SDS011;7545;52.092;7.006;2022-10-31T08:19:18;12.50;;;8.63;;
14907;SDS011;7545;52.092;7.006;2022-10-31T08:21:44;13.18;;;9.93;;
14907;SDS011;7545;52.092;7.006;2022-10-31T08:24:10;15.30;;;9.95;;
14907;SDS011;7545;52.092;7.006;2022-10-31T08:26:35;14.55;;;9.88;;
14907;SDS011;7545;52.092;7.006;2022-10-31T08:29:01;14.65;;;10.18;;
14907;SDS011;7545;52.092;7.006;2022-10-31T08:31:28;15.88;;;9.93;;
14907;SDS011;7545;52.092;7.006;2022-10-31T08:33:53;14.05;;;9.70;;
14907;SDS011;7545;52.092;7.006;2022-10-31T08:36:20;16.40;;;11.30;;
14907;SDS011;7545;52.092;7.006;2022-10-31T08:38:46;15.88;;;10.23;;
14907;SDS011;7545;52.092;7.006;2022-10-31T08:41:12;20.02;;;9.88;;
14907;SDS011;7545;52.092;7.006;2022-10-31T08:43:38;15.75;;;10.50;;
14907;SDS011;7545;52.092;7.006;2022-10-31T08:46:03;14.13;;;10.43;;
14907;SDS011;7545;52.092;7.006;2022-10-31T08:48:29;14.57;;;10.85;;
14907;SDS011;7545;52.092;7.006;2022-10-31T08:50:58;19.10;;;11.13;;
14907;SDS011;7545;52.092;7.006;2022-10-31T08:53:24;16.08;;;10.65;;
14907;SDS011;7545;52.092;7.006;2022-10-31T08:55:53;15.88;;;11.50;;
14907;SDS011;7545;52.092;7.006;2022-10-31T08:58:20;16.60;;;9.73;;
14907;SDS011;7545;52.092;7.006;2022-10-31T09:00:46;16.45;;;10.43;;
14907;SDS011;7545;52.092;7.006;2022-10-31T09:03:14;16.27;;;10.23;;
14907;SDS011;7545;52.092;7.006;2022-10-31T09:05:45;14.05;;;9.82;;
14907;SDS011;7545;52.092;7.006;2022-10-31T09:08:11;12.27;;;9.75;;
14907;SDS011;7545;52.092;7.006;2022-10-31T09:10:38;15.65;;;10.18;;
14907;SDS011;7545;52.092;7.006;2022-10-31T09:13:05;16.55;;;11.07;;
14907;SDS011;7545;52.092;7.006;2022-10-31T09:15:37;15.45;;;9.48;;
14907;SDS011;7545;52.092;7.006;2022-10-31T09:18:07;12.77;;;8.75;;
14907;SDS011;7545;52.092;7.006;2022-10-31T09:20:34;12.85;;;8.80;;
14907;SDS011;7545;52.092;7.006;2022-10-31T09:23:02;12.52;;;9.07;;
14907;SDS011;7545;52.092;7.006;2022-10-31T09:25:33;9.32;;;7.55;;
14907;SDS011;7545;52.092;7.006;2022-10-31T09:28:00;12.10;;;7.45;;
14907;SDS011;7545;52.092;7.006;2022-10-31T09:30:28;15.52;;;8.13;;
14907;SDS011;7545;52.092;7.006;2022-10-31T09:32:58;12.85;;;6.90;;
14907;SDS011;7545;52.092;7.006;2022-10-31T09:35:25;10.52;;;7.93;;
14907;SDS011;7545;52.092;7.006;2022-10-31T09:38:33;11.65;;;7.38;;
14907;SDS011;7545;52.092;7.006;2022-10-31T09:40:42;11.43;;;6.75;;
14907;SDS011;7545;52.092;7.006;2022-10-31T09:43:22;10.90;;;6.88;;
14907;SDS011;7545;52.092;7.006;2022-10-31T09:46:00;8.18;;;5.60;;
14907;SDS011;7545;52.092;7.006;2022-10-31T09:48:59;10.23;;;6.97;;
14907;SDS011;7545;52.092;7.006;2022-10-31T09:51:45;8.32;;;5.88;;
14907;SDS011;7545;52.092;7.006;2022-10-31T09:57:05;6.90;;;5.22;;
14907;SDS011;7545;52.092;7.006;2022-10-31T09:59:38;9.07;;;5.30;;
14907;SDS011;7545;52.092;7.006;2022-10-31T10:10:35;6.88;;;3.67;;
14907;SDS011;7545;52.092;7.006;2022-10-31T10:21:16;6.93;;;3.97;;
14907;SDS011;7545;52.092;7.006;2022-10-31T10:27:33;7.38;;;4.75;;
14907;SDS011;7545;52.092;7.006;2022-10-31T10:29:58;8.07;;;4.28;;
14907;SDS011;7545;52.092;7.006;2022-10-31T10:32:57;8.90;;;4.18;;
14907;SDS011;7545;52.092;7.006;2022-10-31T10:35:31;7.03;;;4.60;;
14907;SDS011;7545;52.092;7.006;2022-10-31T10:40:37;5.95;;;3.90;;
14907;SDS011;7545;52.092;7.006;2022-10-31T10:59:27;15.20;;;6.50;;
14907;SDS011;7545;52.092;7.006;2022-10-31T11:01:54;14.88;;;6.05;;
14907;SDS011;7545;52.092;7.006;2022-10-31T11:07:00;10.30;;;5.47;;
14907;SDS011;7545;52.092;7.006;2022-10-31T11:09:26;14.32;;;5.90;;
14907;SDS011;7545;52.092;7.006;2022-10-31T11:11:52;12.25;;;5.20;;
14907;SDS011;7545;52.092;7.006;2022-10-31T11:14:18;12.90;;;7.38;;
14907;SDS011;7545;52.092;7.006;2022-10-31T11:16:46;13.68;;;6.93;;
14907;SDS011;7545;52.092;7.006;2022-10-31T11:21:53;13.15;;;7.18;;
14907;SDS011;7545;52.092;7.006;2022-10-31T11:24:20;13.38;;;7.75;;
14907;SDS011;7545;52.092;7.006;2022-10-31T11:26:49;14.30;;;7.22;;
14907;SDS011;7545;52.092;7.006;2022-10-31T11:29:17;15.73;;;7.80;;
14907;SDS011;7545;52.092;7.006;2022-10-31T11:31:46;13.65;;;8.10;;
14907;SDS011;7545;52.092;7.006;2022-10-31T11:34:15;10.73;;;6.97;;
14907;SDS011;7545;52.092;7.006;2022-10-31T11:36:48;10.85;;;6.93;;
14907;SDS011;7545;52.092;7.006;2022-10-31T11:39:16;12.93;;;7.43;;
14907;SDS011;7545;52.092;7.006;2022-10-31T11:41:44;11.95;;;8.15;;
14907;SDS011;7545;52.092;7.006;2022-10-31T11:44:16;12.98;;;8.27;;
14907;SDS011;7545;52.092;7.006;2022-10-31T11:46:51;16.80;;;8.63;;
14907;SDS011;7545;52.092;7.006;2022-10-31T11:49:22;13.02;;;8.43;;
14907;SDS011;7545;52.092;7.006;2022-10-31T11:51:53;14.35;;;7.78;;
14907;SDS011;7545;52.092;7.006;2022-10-31T11:54:25;11.23;;;6.80;;
14907;SDS011;7545;52.092;7.006;2022-10-31T11:56:54;10.88;;;7.70;;
14907;SDS011;7545;52.092;7.006;2022-10-31T11:59:24;11.88;;;7.00;;
14907;SDS011;7545;52.092;7.006;2022-10-31T12:01:51;13.15;;;8.10;;
14907;SDS011;7545;52.092;7.006;2022-10-31T12:04:18;14.85;;;8.48;;
14907;SDS011;7545;52.092;7.006;2022-10-31T12:06:48;19.13;;;9.07;;
14907;SDS011;7545;52.092;7.006;2022-10-31T12:09:19;13.27;;;7.32;;
14907;SDS011;7545;52.092;7.006;2022-10-31T12:23:18;19.13;;;10.88;;
14907;SDS011;7545;52.092;7.006;2022-10-31T12:25:52;18.25;;;10.00;;
14907;SDS011;7545;52.092;7.006;2022-10-31T12:36:38;20.02;;;10.25;;
14907;SDS011;7545;52.092;7.006;2022-10-31T12:47:30;16.92;;;11.25;;
14907;SDS011;7545;52.092;7.006;2022-10-31T12:53:25;20.15;;;11.32;;
14907;SDS011;7545;52.092;7.006;2022-10-31T12:55:53;15.68;;;10.60;;
14907;SDS011;7545;52.092;7.006;2022-10-31T12:58:28;15.85;;;11.23;;
14907;SDS011;7545;52.092;7.006;2022-10-31T13:01:07;18.40;;;11.40;;
14907;SDS011;7545;52.092;7.006;2022-10-31T13:06:22;21.30;;;12.02;;
14907;SDS011;7545;52.092;7.006;2022-10-31T13:08:53;19.10;;;12.95;;
14907;SDS011;7545;52.092;7.006;2022-10-31T13:11:22;17.30;;;11.52;;
14907;SDS011;7545;52.092;7.006;2022-10-31T13:16:23;16.92;;;11.50;;
14907;SDS011;7545;52.092;7.006;2022-10-31T13:21:49;23.05;;;12.75;;
14907;SDS011;7545;52.092;7.006;2022-10-31T13:24:19;19.67;;;14.10;;
14907;SDS011;7545;52.092;7.006;2022-10-31T13:26:55;19.02;;;13.55;;
14907;SDS011;7545;52.092;7.006;2022-10-31T13:29:31;20.27;;;13.00;;
14907;SDS011;7545;52.092;7.006;2022-10-31T13:32:05;24.95;;;14.13;;
14907;SDS011;7545;52.092;7.006;2022-10-31T13:34:37;20.20;;;14.35;;
14907;SDS011;7545;52.092;7.006;2022-10-31T13:37:29;21.27;;;14.60;;
14907;SDS011;7545;52.092;7.006;2022-10-31T13:40:00;22.25;;;13.82;;
14907;SDS011;7545;52.092;7.006;2022-10-31T13:42:49;23.52;;;13.65;;
14907;SDS011;7545;52.092;7.006;2022-10-31T13:45:29;28.80;;;15.10;;
14907;SDS011;7545;52.092;7.006;2022-10-31T13:48:40;20.90;;;13.98;;
14907;SDS011;7545;52.092;7.006;2022-10-31T13:50:41;21.92;;;14.95;;
14907;SDS011;7545;52.092;7.006;2022-10-31T13:53:18;21.08;;;14.65;;
14907;SDS011;7545;52.092;7.006;2022-10-31T13:55:47;23.02;;;15.68;;
14907;SDS011;7545;52.092;7.006;2022-10-31T13:58:24;21.05;;;13.35;;
14907;SDS011;7545;52.092;7.006;2022-10-31T14:03:39;23.23;;;15.27;;
14907;SDS011;7545;52.092;7.006;2022-10-31T14:06:07;25.50;;;15.23;;
14907;SDS011;7545;52.092;7.006;2022-10-31T14:08:35;25.02;;;15.63;;
14907;SDS011;7545;52.092;7.006;2022-10-31T14:11:04;22.83;;;15.27;;
14907;SDS011;7545;52.092;7.006;2022-10-31T14:13:43;26.65;;;14.80;;
14907;SDS011;7545;52.092;7.006;2022-10-31T14:16:23;20.42;;;14.15;;
14907;SDS011;7545;52.092;7.006;2022-10-31T14:18:57;22.92;;;14.75;;
14907;SDS011;7545;52.092;7.006;2022-10-31T14:23:51;21.13;;;14.48;;
14907;SDS011;7545;52.092;7.006;2022-10-31T14:28:57;21.73;;;14.15;;
14907;SDS011;7545;52.092;7.006;2022-10-31T14:31:34;21.38;;;13.45;;
14907;SDS011;7545;52.092;7.006;2022-10-31T14:34:52;20.13;;;14.18;;
14907;SDS011;7545;52.092;7.006;2022-10-31T14:37:13;20.40;;;13.45;;
14907;SDS011;7545;52.092;7.006;2022-10-31T14:45:25;21.35;;;13.65;;
14907;SDS011;7545;52.092;7.006;2022-10-31T14:48:20;22.00;;;13.48;;
14907;SDS011;7545;52.092;7.006;2022-10-31T14:51:25;20.85;;;13.65;;
14907;SDS011;7545;52.092;7.006;2022-10-31T14:53:55;20.15;;;13.95;;
14907;SDS011;7545;52.092;7.006;2022-10-31T14:58:52;19.80;;;14.23;;
14907;SDS011;7545;52.092;7.006;2022-10-31T15:03:50;27.17;;;13.63;;
14907;SDS011;7545;52.092;7.006;2022-10-31T15:06:17;24.45;;;12.98;;
14907;SDS011;7545;52.092;7.006;2022-10-31T15:08:46;21.02;;;13.35;;
14907;SDS011;7545;52.092;7.006;2022-10-31T15:11:15;19.15;;;13.25;;
14907;SDS011;7545;52.092;7.006;2022-10-31T15:13:54;19.38;;;13.05;;
14907;SDS011;7545;52.092;7.006;2022-10-31T15:18:56;19.42;;;13.07;;
14907;SDS011;7545;52.092;7.006;2022-10-31T15:21:25;27.38;;;13.65;;
14907;SDS011;7545;52.092;7.006;2022-10-31T15:23:53;42.88;;;14.85;;
14907;SDS011;7545;52.092;7.006;2022-10-31T15:26:27;22.30;;;13.02;;
14907;SDS011;7545;52.092;7.006;2022-10-31T15:29:10;18.55;;;13.38;;
14907;SDS011;7545;52.092;7.006;2022-10-31T15:31:37;21.05;;;12.88;;
14907;SDS011;7545;52.092;7.006;2022-10-31T15:34:11;27.67;;;13.15;;
14907;SDS011;7545;52.092;7.006;2022-10-31T15:36:44;25.95;;;14.27;;
14907;SDS011;7545;52.092;7.006;2022-10-31T15:39:13;23.75;;;13.45;;
14907;SDS011;7545;52.092;7.006;2022-10-31T15:41:49;27.20;;;13.52;;
14907;SDS011;7545;52.092;7.006;2022-10-31T15:47:05;23.83;;;13.90;;
14907;SDS011;7545;52.092;7.006;2022-10-31T15:49:40;22.25;;;13.68;;
14907;SDS011;7545;52.092;7.006;2022-10-31T15:54:44;26.00;;;14.38;;
14907;SDS011;7545;52.092;7.006;2022-10-31T15:57:22;24.33;;;14.27;;
14907;SDS011;7545;52.092;7.006;2022-10-31T15:59:50;23.75;;;14.82;;
14907;SDS011;7545;52.092;7.006;2022-10-31T16:02:21;34.85;;;17.05;;
14907;SDS011;7545;52.092;7.006;2022-10-31T16:04:59;43.60;;;16.52;;
14907;SDS011;7545;52.092;7.006;2022-10-31T16:07:26;22.98;;;15.88;;
14907;SDS011;7545;52.092;7.006;2022-10-31T16:09:56;28.90;;;17.00;;
14907;SDS011;7545;52.092;7.006;2022-10-31T16:12:25;26.83;;;15.50;;
14907;SDS011;7545;52.092;7.006;2022-10-31T16:14:57;32.00;;;17.02;;
14907;SDS011;7545;52.092;7.006;2022-10-31T16:17:24;32.10;;;17.63;;
14907;SDS011;7545;52.092;7.006;2022-10-31T16:22:29;37.17;;;18.90;;
14907;SDS011;7545;52.092;7.006;2022-10-31T16:25:43;48.50;;;19.88;;
14907;SDS011;7545;52.092;7.006;2022-10-31T16:27:55;40.65;;;17.85;;
14907;SDS011;7545;52.092;7.006;2022-10-31T16:30:39;35.28;;;17.80;;
14907;SDS011;7545;52.092;7.006;2022-10-31T16:35:56;34.28;;;19.73;;
14907;SDS011;7545;52.092;7.006;2022-10-31T16:38:22;31.77;;;17.60;;
14907;SDS011;7545;52.092;7.006;2022-10-31T16:40:48;28.05;;;16.77;;
14907;SDS011;7545;52.092;7.006;2022-10-31T16:43:15;30.63;;;17.17;;
14907;SDS011;7545;52.092;7.006;2022-10-31T16:45:43;27.77;;;17.00;;
14907;SDS011;7545;52.092;7.006;2022-10-31T16:48:11;27.38;;;15.38;;
14907;SDS011;7545;52.092;7.006;2022-10-31T16:50:40;26.73;;;16.92;;
14907;SDS011;7545;52.092;7.006;2022-10-31T16:53:06;29.73;;;17.40;;
14907;SDS011;7545;52.092;7.006;2022-10-31T16:55:32;33.30;;;18.40;;
14907;SDS011;7545;52.092;7.006;2022-10-31T16:58:00;30.52;;;17.48;;
14907;SDS011;7545;52.092;7.006;2022-10-31T17:00:26;28.10;;;17.27;;
14907;SDS011;7545;52.092;7.006;2022-10-31T17:02:54;34.38;;;20.98;;
14907;SDS011;7545;52.092;7.006;2022-10-31T17:05:22;30.08;;;19.23;;
14907;SDS011;7545;52.092;7.006;2022-10-31T17:07:54;30.90;;;17.73;;
14907;SDS011;7545;52.092;7.006;2022-10-31T17:10:20;31.00;;;18.33;;
14907;SDS011;7545;52.092;7.006;2022-10-31T17:12:46;31.25;;;17.95;;
14907;SDS011;7545;52.092;7.006;2022-10-31T17:15:15;30.00;;;16.80;;
14907;SDS011;7545;52.092;7.006;2022-10-31T17:17:43;34.75;;;18.35;;
14907;SDS011;7545;52.092;7.006;2022-10-31T17:20:27;30.50;;;18.92;;
14907;SDS011;7545;52.092;7.006;2022-10-31T17:22:54;33.92;;;21.27;;
14907;SDS011;7545;52.092;7.006;2022-10-31T17:25:22;36.10;;;20.88;;
14907;SDS011;7545;52.092;7.006;2022-10-31T17:27:50;34.08;;;22.75;;
14907;SDS011;7545;52.092;7.006;2022-10-31T17:30:17;29.00;;;19.00;;
14907;SDS011;7545;52.092;7.006;2022-10-31T17:32:44;29.27;;;17.92;;
14907;SDS011;7545;52.092;7.006;2022-10-31T17:35:10;31.52;;;18.38;;
14907;SDS011;7545;52.092;7.006;2022-10-31T17:37:37;27.15;;;17.33;;